Time;durP1;ratioP1;P1;durP2;ratioP2;P2;SDS_P1;SDS_P2;PMS_P1;PMS_P2;Temp;Humidity;BMP_temperature;BMP_pressure;BME280_temperature;BME280_humidity;BME280_pressure;Samples;Min_cycle;Max_cycle;Signal;HPM_P1;HPM_P2
2022/08/13 00:01:39;;;;;;;;;5.75;5.75;;;;;27.40;23.89;100654.19;5074169;27;45630;-54
2022/08/13 00:04:06;;;;;;;;;6.25;6.00;;;;;27.38;23.53;100653.50;5070950;27;45596;-52
2022/08/13 00:09:09;;;;;;;;;8.50;6.25;;;;;27.35;23.20;100651.13;5074951;27;45602;-54
2022/08/13 00:14:22;;;;;;;;;5.00;5.00;;;;;27.32;24.03;100654.09;5068001;27;45245;-52
2022/08/13 00:16:48;;;;;;;;;6.00;5.00;;;;;27.29;23.81;100655.28;5070370;28;46006;-52
2022/08/13 00:19:13;;;;;;;;;6.00;5.00;;;;;27.27;23.66;100654.59;5067463;27;45322;-51
2022/08/13 00:21:38;;;;;;;;;5.50;4.00;;;;;27.24;24.00;100658.38;5073287;28;71862;-51
2022/08/13 00:24:04;;;;;;;;;5.75;5.00;;;;;27.23;23.95;100654.00;5065934;27;46213;-54
2022/08/13 00:26:30;;;;;;;;;4.50;4.25;;;;;27.21;23.66;100655.16;5066906;28;45375;-51
2022/08/13 00:28:55;;;;;;;;;5.00;4.50;;;;;27.19;23.88;100663.34;5067882;27;45481;-52
2022/08/13 00:31:22;;;;;;;;;4.00;4.00;;;;;27.17;23.64;100661.81;5069113;27;45557;-52
2022/08/13 00:33:47;;;;;;;;;7.00;5.50;;;;;27.14;23.94;100657.59;5065006;27;45614;-52
2022/08/13 00:36:13;;;;;;;;;5.00;5.00;;;;;27.14;24.04;100657.59;5067898;28;45451;-52
2022/08/13 00:38:44;;;;;;;;;5.00;4.00;;;;;27.11;23.49;100657.91;5074588;27;45364;-54
2022/08/13 00:41:37;;;;;;;;;6.25;5.00;;;;;27.09;24.34;100660.75;5072030;27;45415;-51
2022/08/13 00:43:57;;;;;;;;;5.00;5.00;;;;;27.06;24.01;100650.28;5065798;27;45404;-51
2022/08/13 00:46:23;;;;;;;;;5.50;5.50;;;;;27.05;23.80;100656.66;5072710;27;46127;-49
2022/08/13 00:48:49;;;;;;;;;5.75;5.75;;;;;27.03;24.26;100658.66;5073513;28;45989;-48
2022/08/13 00:51:16;;;;;;;;;5.50;5.00;;;;;27.01;24.41;100659.81;5070622;28;47364;-49
2022/08/13 00:53:43;;;;;;;;;7.50;6.00;;;;;26.98;24.35;100654.72;5061177;28;47379;-53
2022/08/13 00:56:11;;;;;;;;;10.50;7.75;;;;;26.94;24.60;100653.34;5075400;27;45414;-51
2022/08/13 00:58:37;;;;;;;;;8.00;6.50;;;;;26.93;24.95;100657.84;5075938;27;45453;-51
2022/08/13 01:01:04;;;;;;;;;7.75;5.75;;;;;26.91;24.20;100657.16;5057990;28;45521;-52
2022/08/13 01:03:31;;;;;;;;;9.25;7.75;;;;;26.87;24.70;100659.28;5070917;27;46247;-52
2022/08/13 01:05:59;;;;;;;;;11.00;7.75;;;;;26.84;24.55;100659.63;5079543;27;45382;-53
2022/08/13 01:08:25;;;;;;;;;9.75;8.00;;;;;26.83;24.53;100662.44;5084168;27;45308;-51
2022/08/13 01:10:56;;;;;;;;;9.75;9.00;;;;;26.79;24.76;100663.72;5069315;28;45476;-53
2022/08/13 01:13:25;;;;;;;;;11.50;10.25;;;;;26.77;24.79;100665.72;5067305;27;46077;-53
2022/08/13 01:15:51;;;;;;;;;9.75;8.00;;;;;26.74;25.16;100660.63;5076471;27;45899;-57
2022/08/13 01:18:17;;;;;;;;;6.75;6.75;;;;;26.71;25.28;100667.16;5054428;28;45408;-54
2022/08/13 01:21:02;;;;;;;;;10.00;8.50;;;;;26.64;25.34;100658.00;5064225;27;45315;-49
2022/08/13 01:23:28;;;;;;;;;7.00;6.75;;;;;26.61;25.52;100663.63;5068989;27;45678;-51
2022/08/13 01:25:55;;;;;;;;;8.50;8.00;;;;;26.57;25.44;100656.88;5068699;28;45814;-53
2022/08/13 01:28:27;;;;;;;;;12.00;8.25;;;;;26.54;25.64;100666.06;5071609;28;45501;-53
2022/08/13 01:30:54;;;;;;;;;7.25;6.75;;;;;26.50;25.69;100664.66;5081847;27;45380;-53
2022/08/13 01:33:20;;;;;;;;;9.50;8.00;;;;;26.47;25.53;100662.28;5075473;28;45315;-54
2022/08/13 01:35:46;;;;;;;;;11.00;8.75;;;;;26.43;25.63;100661.72;5073019;27;46049;-54
2022/08/13 01:38:13;;;;;;;;;9.75;7.50;;;;;26.39;26.00;100657.66;5076520;28;45466;-52
2022/08/13 01:40:39;;;;;;;;;9.00;8.00;;;;;26.36;26.03;100663.28;5061885;27;45541;-52
2022/08/13 01:43:05;;;;;;;;;11.75;9.25;;;;;26.33;26.42;100661.75;5067243;27;46285;-52
2022/08/13 01:45:31;;;;;;;;;11.00;9.75;;;;;26.29;26.48;100662.19;5053314;28;45862;-54
2022/08/13 01:50:41;;;;;;;;;9.00;7.00;;;;;26.21;26.23;100662.94;5071011;27;45299;-51
2022/08/13 01:53:12;;;;;;;;;9.75;8.75;;;;;26.19;26.51;100664.91;5060794;27;47149;-54
2022/08/13 01:55:43;;;;;;;;;11.25;7.50;;;;;26.17;26.57;100666.03;5055417;28;45941;-53
2022/08/13 01:58:19;;;;;;;;;11.50;10.25;;;;;26.14;26.90;100668.00;5073408;28;45654;-52
2022/08/13 02:00:46;;;;;;;;;10.75;8.75;;;;;26.12;26.55;100666.47;5077153;28;45578;-52
2022/08/13 02:03:12;;;;;;;;;9.00;8.00;;;;;26.10;26.87;100668.44;5064007;27;45349;-55
2022/08/13 02:05:39;;;;;;;;;8.75;8.25;;;;;26.07;26.88;100666.91;5067255;28;45808;-50
2022/08/13 02:08:09;;;;;;;;;24.75;19.75;;;;;26.04;27.06;100669.88;5066105;28;45513;-53
2022/08/13 02:10:36;;;;;;;;;17.00;14.25;;;;;26.03;26.87;100665.50;5071203;27;45397;-54
2022/08/13 02:13:04;;;;;;;;;11.75;11.25;;;;;26.01;27.18;100669.31;5065846;28;45519;-50
2022/08/13 02:15:29;;;;;;;;;9.75;8.50;;;;;25.99;27.19;100665.94;5065756;27;45673;-53
2022/08/13 02:17:55;;;;;;;;;10.00;8.25;;;;;25.95;27.81;100668.03;5067348;27;45511;-49
2022/08/13 02:20:20;;;;;;;;;11.25;9.00;;;;;25.91;27.43;100666.63;5068413;28;53027;-49
2022/08/13 02:22:47;;;;;;;;;9.50;8.50;;;;;25.88;27.28;100673.09;5065245;27;63942;-49
2022/08/13 02:25:16;;;;;;;;;10.00;8.25;;;;;25.85;27.63;100668.03;5072517;28;45342;-50
2022/08/13 02:27:42;;;;;;;;;10.25;10.00;;;;;25.83;27.08;100669.16;5065763;27;45410;-53
2022/08/13 02:30:10;;;;;;;;;10.00;9.25;;;;;25.79;27.88;100668.59;5066189;27;45185;-50
2022/08/13 02:32:40;;;;;;;;;7.25;6.00;;;;;25.74;27.06;100666.31;5064915;28;46194;-48
2022/08/13 02:35:08;;;;;;;;;8.25;7.50;;;;;25.71;27.37;100669.31;5074591;28;45441;-48
2022/08/13 02:37:35;;;;;;;;;9.50;9.00;;;;;25.70;27.46;100667.59;5069749;27;45283;-49
2022/08/13 02:40:03;;;;;;;;;7.75;7.75;;;;;25.70;27.59;100664.09;5066271;27;45690;-49
2022/08/13 02:42:31;;;;;;;;;14.00;9.75;;;;;25.66;27.84;100670.72;5064138;27;48669;-50
2022/08/13 02:44:57;;;;;;;;;11.50;9.50;;;;;25.63;27.60;100666.47;5070326;27;45493;-51
2022/08/13 02:47:24;;;;;;;;;12.00;10.50;;;;;25.61;27.63;100671.13;5069451;27;45256;-51
2022/08/13 02:49:51;;;;;;;;;10.00;10.00;;;;;25.60;27.66;100669.44;5080047;27;46107;-52
2022/08/13 02:52:20;;;;;;;;;11.25;10.00;;;;;25.59;27.87;100667.75;5069708;27;46115;-51
2022/08/13 02:54:48;;;;;;;;;8.00;7.50;;;;;25.58;27.83;100663.38;5072060;27;45604;-53
2022/08/13 02:57:14;;;;;;;;;8.25;7.75;;;;;25.54;28.28;100670.00;5072433;28;45449;-50
2022/08/13 02:59:41;;;;;;;;;9.75;8.25;;;;;25.51;27.91;100676.47;5070877;27;51249;-51
2022/08/13 03:02:07;;;;;;;;;10.75;7.25;;;;;25.46;28.03;100670.72;5066502;27;47049;-48
2022/08/13 03:04:33;;;;;;;;;10.25;7.50;;;;;25.41;28.06;100664.06;5070523;27;45490;-53
2022/08/13 03:06:59;;;;;;;;;11.50;8.50;;;;;25.41;28.16;100669.44;5077675;27;45445;-53
2022/08/13 03:09:25;;;;;;;;;10.75;8.75;;;;;25.35;28.08;100669.00;5060469;27;45375;-53
2022/08/13 03:11:51;;;;;;;;;8.25;7.25;;;;;25.29;27.84;100666.88;5075161;28;46053;-51
2022/08/13 03:14:18;;;;;;;;;9.25;7.00;;;;;25.27;28.09;100668.00;5069383;27;56694;-51
2022/08/13 03:16:44;;;;;;;;;9.75;7.50;;;;;25.25;28.17;100660.13;5072955;27;45371;-52
2022/08/13 03:19:09;;;;;;;;;8.25;8.25;;;;;25.24;28.12;100670.94;5069078;27;45777;-51
2022/08/13 03:21:43;;;;;;;;;5.75;5.00;;;;;25.21;28.38;100664.00;5068116;27;45571;-50
2022/08/13 03:24:13;;;;;;;;;8.75;7.25;;;;;25.20;28.18;100665.00;5072317;27;45847;-50
2022/08/13 03:26:39;;;;;;;;;10.00;7.00;;;;;25.20;28.18;100667.69;5071909;28;45500;-53
2022/08/13 03:29:05;;;;;;;;;8.00;8.00;;;;;25.17;28.26;100663.44;5073598;27;62896;-50
2022/08/13 03:31:30;;;;;;;;;9.00;6.50;;;;;25.16;28.42;100661.75;5066922;28;45968;-50
2022/08/13 03:34:00;;;;;;;;;8.00;8.00;;;;;25.14;28.34;100669.09;5074734;27;45445;-53
2022/08/13 03:36:26;;;;;;;;;7.00;7.00;;;;;25.13;28.26;100669.22;5067512;27;45454;-48
2022/08/13 03:38:51;;;;;;;;;8.00;7.00;;;;;25.12;28.44;100659.50;5073835;28;45345;-52
2022/08/13 03:41:17;;;;;;;;;9.25;7.50;;;;;25.09;28.57;100662.44;5071326;28;70364;-51
2022/08/13 03:43:47;;;;;;;;;7.00;6.25;;;;;25.07;28.37;100661.72;5068114;27;45516;-52
2022/08/13 03:46:17;;;;;;;;;9.00;7.50;;;;;25.04;28.59;100665.53;5072899;27;45261;-50
2022/08/13 03:48:44;;;;;;;;;7.00;6.00;;;;;25.02;28.26;100660.31;5068441;27;45560;-50
2022/08/13 03:51:10;;;;;;;;;6.50;5.75;;;;;25.00;28.65;100664.09;5080889;27;46002;-51
2022/08/13 03:53:36;;;;;;;;;6.50;6.50;;;;;24.95;28.51;100664.53;5073181;27;45695;-49
2022/08/13 03:56:02;;;;;;;;;6.00;6.00;;;;;24.95;28.76;100661.84;5079895;27;45386;-51
2022/08/13 03:58:29;;;;;;;;;8.00;8.00;;;;;24.94;28.75;100660.16;5078074;27;45380;-50
2022/08/13 04:00:55;;;;;;;;;6.25;6.25;;;;;24.93;28.43;100655.78;5071699;27;45413;-51
2022/08/13 04:03:28;;;;;;;;;8.25;6.75;;;;;24.90;28.52;100661.41;5068156;27;45955;-48
2022/08/13 04:05:55;;;;;;;;;9.50;7.00;;;;;24.88;28.14;100662.50;5073131;27;45517;-49
2022/08/13 04:08:20;;;;;;;;;5.50;5.50;;;;;24.85;28.42;100662.81;5080167;27;45383;-48
2022/08/13 04:10:46;;;;;;;;;7.25;7.25;;;;;24.83;28.71;100661.09;5065773;27;46424;-49
2022/08/13 04:13:13;;;;;;;;;7.00;7.00;;;;;24.81;28.51;100668.44;5078856;27;45413;-50
2022/08/13 04:15:42;;;;;;;;;6.25;6.25;;;;;24.81;28.68;100660.41;5076101;28;45464;-49
2022/08/13 04:18:09;;;;;;;;;7.75;6.25;;;;;24.81;28.63;100671.09;5076939;27;45287;-51
2022/08/13 04:20:36;;;;;;;;;7.00;7.00;;;;;24.80;28.75;100661.38;5075066;27;45315;-53
2022/08/13 04:23:03;;;;;;;;;10.75;7.00;;;;;24.80;28.71;100663.19;5076325;27;45762;-53
2022/08/13 04:25:29;;;;;;;;;9.00;7.00;;;;;24.78;28.93;100665.16;5072171;27;45432;-52
2022/08/13 04:27:54;;;;;;;;;7.50;6.00;;;;;24.75;28.97;100676.97;5067017;27;72842;-54
2022/08/13 04:30:20;;;;;;;;;8.50;8.50;;;;;24.74;29.17;100666.44;5069754;28;46384;-50
2022/08/13 04:32:48;;;;;;;;;5.75;5.75;;;;;24.70;29.31;100670.34;5072918;28;45388;-51
2022/08/13 04:35:14;;;;;;;;;9.00;8.00;;;;;24.66;29.06;100669.75;5078089;27;45429;-51
2022/08/13 04:37:39;;;;;;;;;8.50;8.00;;;;;24.63;28.91;100664.69;5074459;27;71934;-49
2022/08/13 04:40:06;;;;;;;;;5.25;5.00;;;;;24.61;29.28;100666.63;5071341;27;45457;-50
2022/08/13 04:42:49;;;;;;;;;8.00;7.00;;;;;24.57;29.53;100663.38;5078484;27;45322;-51
2022/08/13 04:45:15;;;;;;;;;5.75;5.75;;;;;24.54;29.78;100662.81;5069649;27;45510;-47
2022/08/13 04:47:41;;;;;;;;;8.00;7.00;;;;;24.47;29.47;100662.50;5070556;28;45370;-52
2022/08/13 04:50:09;;;;;;;;;6.75;5.75;;;;;24.41;29.56;100663.84;5073654;27;46417;-53
2022/08/13 04:52:34;;;;;;;;;7.00;6.75;;;;;24.38;29.55;100663.25;5067489;28;45815;-55
2022/08/13 04:55:02;;;;;;;;;6.50;6.50;;;;;24.36;29.47;100665.22;5065230;27;45152;-53
2022/08/13 04:57:27;;;;;;;;;6.50;6.00;;;;;24.35;29.18;100660.88;5069495;28;45390;-52
2022/08/13 04:59:53;;;;;;;;;6.75;6.75;;;;;24.38;29.89;100661.47;5071328;27;46328;-54
2022/08/13 05:02:19;;;;;;;;;8.00;6.00;;;;;24.36;29.56;100658.03;5072866;27;67860;-50
2022/08/13 05:04:45;;;;;;;;;7.00;7.00;;;;;24.36;29.63;100663.38;5067718;27;45485;-53
2022/08/13 05:07:10;;;;;;;;;11.00;7.25;;;;;24.36;29.76;100663.38;5068870;27;57593;-51
2022/08/13 05:09:35;;;;;;;;;6.00;5.25;;;;;24.37;29.50;100666.94;5071730;27;47092;-54
2022/08/13 05:12:01;;;;;;;;;11.00;7.00;;;;;24.33;30.00;100663.69;5066732;27;72247;-52
2022/08/13 05:14:26;;;;;;;;;6.75;6.00;;;;;24.34;29.68;100672.53;5067917;27;45343;-48
2022/08/13 05:16:52;;;;;;;;;7.50;6.00;;;;;24.34;29.93;100670.69;5059324;27;65315;-51
2022/08/13 05:19:17;;;;;;;;;7.50;5.50;;;;;24.37;29.68;100677.63;5067806;27;46875;-53
2022/08/13 05:21:43;;;;;;;;;6.25;6.25;;;;;24.38;29.85;100676.63;5062512;28;45434;-52
2022/08/13 05:24:08;;;;;;;;;4.00;4.00;;;;;24.40;29.61;100672.00;5065221;27;45409;-53
2022/08/13 05:26:34;;;;;;;;;9.00;8.00;;;;;24.44;29.51;100676.97;5069216;27;45782;-54
2022/08/13 05:29:06;;;;;;;;;5.50;5.50;;;;;24.47;29.24;100683.88;5071552;27;46017;-52
2022/08/13 05:31:35;;;;;;;;;6.25;6.25;;;;;24.48;29.41;100680.22;5073276;28;45850;-54
2022/08/13 05:34:03;;;;;;;;;8.25;6.00;;;;;24.50;29.57;100680.09;5072691;27;45454;-54
2022/08/13 05:36:31;;;;;;;;;6.00;6.00;;;;;24.51;29.42;100679.13;5066304;27;45242;-54
2022/08/13 05:38:58;;;;;;;;;7.50;6.25;;;;;24.53;29.61;100680.69;5072649;28;47172;-45
2022/08/13 05:41:27;;;;;;;;;4.75;4.75;;;;;24.55;30.47;100676.06;5070776;27;45784;-47
2022/08/13 05:43:53;;;;;;;;;6.75;4.75;;;;;24.57;29.87;100675.94;5058962;28;45343;-45
2022/08/13 05:46:19;;;;;;;;;6.25;5.75;;;;;24.57;29.46;100681.28;5068596;28;68771;-45
2022/08/13 05:48:56;;;;;;;;;8.75;6.75;;;;;24.56;29.54;100688.47;5064365;27;45420;-44
2022/08/13 05:51:24;;;;;;;;;4.25;4.00;;;;;24.56;30.08;100684.91;5068298;27;45362;-45
2022/08/13 05:53:54;;;;;;;;;7.75;6.00;;;;;24.55;30.09;100686.75;5072024;28;45213;-40
2022/08/13 05:56:24;;;;;;;;;7.00;7.00;;;;;24.57;29.42;100683.94;5062192;27;46922;-41
2022/08/13 05:58:49;;;;;;;;;8.50;6.25;;;;;24.54;29.55;100687.75;5063412;27;47006;-41
2022/08/13 06:04:02;;;;;;;;;7.25;6.00;;;;;24.52;29.70;100684.31;5065815;28;45383;-40
2022/08/13 06:06:32;;;;;;;;;8.50;5.50;;;;;24.50;31.56;100686.28;5073646;27;45613;-40
2022/08/13 06:08:58;;;;;;;;;8.50;5.25;;;;;24.50;30.17;100686.28;5064851;27;46330;-41
2022/08/13 06:11:24;;;;;;;;;11.00;7.00;;;;;24.52;30.05;100692.34;5063347;27;45245;-40
2022/08/13 06:13:49;;;;;;;;;6.00;5.75;;;;;24.52;29.68;100689.66;5069817;28;45659;-41
2022/08/13 06:16:20;;;;;;;;;8.00;7.50;;;;;24.52;30.73;100692.34;5059256;28;59408;-44
2022/08/13 06:18:49;;;;;;;;;7.00;6.00;;;;;24.55;29.80;100691.28;5072135;28;45425;-42
2022/08/13 06:21:18;;;;;;;;;8.00;6.00;;;;;24.54;29.95;100689.56;5072730;27;45363;-41
2022/08/13 06:23:48;;;;;;;;;7.00;6.50;;;;;24.56;29.54;100685.78;5076788;27;45383;-42
2022/08/13 06:26:15;;;;;;;;;5.25;4.00;;;;;24.57;30.37;100684.78;5071966;27;45536;-44
2022/08/13 06:28:41;;;;;;;;;7.00;6.00;;;;;24.58;29.68;100689.19;5073378;27;46092;-47
2022/08/13 06:31:10;;;;;;;;;6.00;5.00;;;;;24.60;30.48;100689.03;5067938;28;45467;-44
2022/08/13 06:33:36;;;;;;;;;9.00;4.75;;;;;24.63;30.42;100686.13;5079635;27;45330;-44
2022/08/13 06:36:08;;;;;;;;;9.25;6.00;;;;;24.67;29.54;100695.56;5066934;28;45493;-46
2022/08/13 06:38:44;;;;;;;;;7.50;7.50;;;;;24.70;29.81;100689.94;5070749;27;45455;-45
2022/08/13 06:41:11;;;;;;;;;8.00;5.25;;;;;24.72;29.98;100687.97;5071868;27;45844;-42
2022/08/13 06:43:40;;;;;;;;;5.75;5.75;;;;;24.74;29.58;100683.31;5081662;27;45287;-45
2022/08/13 06:46:06;;;;;;;;;7.00;5.00;;;;;24.75;30.00;100701.06;5082045;27;45583;-57
2022/08/13 06:48:33;;;;;;;;;6.00;5.25;;;;;24.78;29.81;100694.63;5078329;27;46105;-58
2022/08/13 06:50:59;;;;;;;;;5.00;5.00;;;;;24.81;29.78;100691.69;5063910;28;45464;-46
2022/08/13 06:53:25;;;;;;;;;6.00;6.00;;;;;24.85;29.87;100689.56;5091503;27;45457;-47
2022/08/13 06:55:51;;;;;;;;;6.50;5.00;;;;;24.89;29.84;100688.31;5075717;27;73266;-48
2022/08/13 06:58:28;;;;;;;;;7.00;6.00;;;;;24.94;29.80;100696.78;5077116;27;47485;-48
2022/08/13 07:00:55;;;;;;;;;6.00;5.25;;;;;24.96;29.57;100694.81;5076236;27;45370;-52
2022/08/13 07:03:25;;;;;;;;;7.75;5.50;;;;;25.00;29.61;100690.88;5065628;28;45346;-57
2022/08/13 07:05:50;;;;;;;;;6.00;5.50;;;;;25.04;29.56;100696.81;5080899;27;45598;-57
2022/08/13 07:08:17;;;;;;;;;4.25;4.00;;;;;25.08;29.62;100692.88;5073513;27;47127;-57
2022/08/13 07:10:50;;;;;;;;;6.00;5.50;;;;;25.10;29.55;100697.09;5070854;27;45399;-57
2022/08/13 07:13:16;;;;;;;;;6.00;5.00;;;;;25.14;29.39;100695.00;5069440;27;45379;-57
2022/08/13 07:15:45;;;;;;;;;5.50;4.75;;;;;25.18;29.61;100699.13;5070623;27;45592;-58
2022/08/13 07:18:11;;;;;;;;;5.50;5.50;;;;;25.22;29.25;100707.72;5071555;27;45662;-57
2022/08/13 07:20:36;;;;;;;;;5.75;4.00;;;;;25.26;29.54;100696.63;5081715;27;45457;-57
2022/08/13 07:23:02;;;;;;;;;4.00;4.00;;;;;25.32;29.19;100703.25;5082030;27;45319;-57
2022/08/13 07:25:30;;;;;;;;;4.50;4.00;;;;;25.37;29.45;100704.56;5080628;27;46194;-57
2022/08/13 07:27:57;;;;;;;;;7.50;5.00;;;;;25.43;29.25;100704.94;5080272;27;45357;-57
2022/08/13 07:30:22;;;;;;;;;5.75;4.00;;;;;25.47;29.25;100696.50;5081871;28;46421;-57
2022/08/13 07:32:51;;;;;;;;;5.00;3.50;;;;;25.52;29.16;100707.66;5074432;27;45481;-57
2022/08/13 07:35:17;;;;;;;;;5.50;4.00;;;;;25.57;29.46;100712.63;5073472;27;45249;-57
2022/08/13 07:37:42;;;;;;;;;6.00;5.00;;;;;25.63;28.99;100712.03;5080434;28;46520;-57
2022/08/13 07:40:08;;;;;;;;;4.50;4.25;;;;;25.69;28.99;100716.00;5082157;27;45214;-58
2022/08/13 07:42:40;;;;;;;;;4.25;4.00;;;;;25.73;28.77;100714.75;5081668;27;45217;-57
2022/08/13 07:45:09;;;;;;;;;4.75;4.75;;;;;25.79;28.86;100718.69;5075469;27;45299;-58
2022/08/13 07:47:36;;;;;;;;;6.50;4.25;;;;;25.84;28.77;100722.63;5076537;27;45611;-56
2022/08/13 07:50:10;;;;;;;;;5.50;4.75;;;;;25.88;28.65;100709.78;5071711;27;45390;-58
2022/08/13 07:52:37;;;;;;;;;3.25;3.00;;;;;25.92;28.60;100709.38;5078168;27;45437;-57
2022/08/13 07:55:02;;;;;;;;;3.00;3.00;;;;;25.98;28.26;100710.69;5068808;28;45544;-57
2022/08/13 07:57:32;;;;;;;;;5.50;4.75;;;;;26.05;28.37;100708.28;5077842;28;45308;-56
2022/08/13 07:59:58;;;;;;;;;6.50;4.75;;;;;26.08;28.61;100711.53;5080206;28;45722;-57
2022/08/13 08:02:27;;;;;;;;;4.50;3.75;;;;;26.16;28.69;100709.94;5080070;27;45383;-58
2022/08/13 08:04:55;;;;;;;;;4.00;3.75;;;;;26.20;28.73;100714.03;5080669;27;57703;-58
2022/08/13 08:07:21;;;;;;;;;5.75;4.25;;;;;26.24;28.37;100708.25;5096120;27;46072;-58
2022/08/13 08:09:48;;;;;;;;;4.25;4.00;;;;;26.30;28.80;100707.66;5081258;27;45323;-58
2022/08/13 08:15:12;;;;;;;;;4.75;4.75;;;;;26.43;28.30;100711.88;5079151;28;45802;-57
2022/08/13 08:17:40;;;;;;;;;3.50;3.50;;;;;26.48;28.35;100717.66;5096846;27;45283;-58
2022/08/13 08:20:06;;;;;;;;;7.00;4.50;;;;;26.53;27.96;100712.69;5080090;27;45875;-57
2022/08/13 08:22:33;;;;;;;;;4.25;4.00;;;;;26.58;28.37;100712.22;5081344;27;45306;-57
2022/08/13 08:24:59;;;;;;;;;3.00;3.00;;;;;26.64;28.20;100717.91;5072866;28;45243;-57
2022/08/13 08:27:25;;;;;;;;;4.00;4.00;;;;;26.72;27.86;100717.19;5081178;27;45284;-58
2022/08/13 08:29:51;;;;;;;;;5.75;4.00;;;;;26.77;27.88;100711.34;5081129;27;45398;-56
2022/08/13 08:32:18;;;;;;;;;5.50;5.00;;;;;26.83;27.93;100713.47;5074435;27;45398;-58
2022/08/13 08:34:46;;;;;;;;;7.00;4.75;;;;;26.89;27.90;100713.69;5079729;27;45478;-57
2022/08/13 08:43:00;;;;;;;;;5.00;2.75;;;;;27.12;27.88;100717.84;5081433;27;45320;-56
2022/08/13 08:45:26;;;;;;;;;4.00;3.50;;;;;27.18;27.17;100718.09;5075699;27;45546;-57
2022/08/13 08:47:52;;;;;;;;;5.00;3.00;;;;;27.25;27.22;100721.88;5077137;28;45275;-57
2022/08/13 08:50:24;;;;;;;;;4.00;3.00;;;;;27.32;27.75;100719.47;5061508;28;45626;-58
2022/08/13 08:55:36;;;;;;;;;5.25;5.00;;;;;27.46;27.50;100716.25;5090390;27;45452;-57
2022/08/13 08:58:07;;;;;;;;;7.00;6.00;;;;;27.54;27.15;100718.19;5094848;27;45429;-58
2022/08/13 09:00:34;;;;;;;;;11.75;10.75;;;;;27.60;26.81;100716.72;5079025;28;45868;-57
2022/08/13 09:03:00;;;;;;;;;3.00;3.00;;;;;27.69;27.17;100712.25;5062862;28;45576;-58
2022/08/13 09:05:26;;;;;;;;;3.25;3.25;;;;;27.76;26.87;100719.56;5076263;27;65373;-57
2022/08/13 09:07:52;;;;;;;;;3.75;3.50;;;;;27.85;26.78;100717.78;5072290;27;46306;-57
2022/08/13 09:10:20;;;;;;;;;3.00;3.00;;;;;27.95;26.42;100715.06;5075239;27;45272;-57
2022/08/13 09:12:46;;;;;;;;;5.00;3.00;;;;;28.08;26.76;100715.47;5079637;27;45412;-58
2022/08/13 09:15:17;;;;;;;;;3.00;3.00;;;;;28.20;26.24;100719.63;5079109;27;45514;-56
2022/08/13 09:17:43;;;;;;;;;3.00;3.00;;;;;28.35;25.98;100711.84;5080172;27;47086;-56
2022/08/13 09:20:13;;;;;;;;;3.00;3.00;;;;;28.60;25.16;100709.31;5078313;27;45280;-57
2022/08/13 09:22:40;;;;;;;;;3.00;2.25;;;;;29.00;24.89;100709.66;5080191;27;45445;-57
2022/08/13 09:25:06;;;;;;;;;3.75;3.75;;;;;29.57;24.94;100709.00;5079915;27;45178;-57
2022/08/13 09:27:34;;;;;;;;;2.25;2.25;;;;;30.24;24.65;100707.03;5095345;27;46881;-57
2022/08/13 09:30:00;;;;;;;;;4.00;3.00;;;;;31.05;24.11;100712.41;5095453;27;45645;-57
2022/08/13 09:32:27;;;;;;;;;4.50;3.00;;;;;31.87;23.97;100708.34;5073803;28;45516;-58
2022/08/13 09:34:53;;;;;;;;;3.00;3.00;;;;;32.81;22.77;100716.09;5076272;27;45300;-58
2022/08/13 09:37:19;;;;;;;;;3.00;3.00;;;;;33.82;20.41;100706.25;5079116;27;67356;-59
2022/08/13 09:39:52;;;;;;;;;3.00;3.00;;;;;34.83;20.00;100707.81;5079830;27;45290;-62
2022/08/13 09:42:26;;;;;;;;;2.50;2.50;;;;;35.77;19.65;100714.41;5079852;27;45363;-59
2022/08/13 09:44:53;;;;;;;;;2.25;2.00;;;;;36.61;18.79;100715.59;5073593;28;45526;-58
2022/08/13 09:47:19;;;;;;;;;3.75;2.75;;;;;37.40;17.76;100727.28;5072467;28;45338;-59
2022/08/13 09:49:48;;;;;;;;;2.00;2.00;;;;;38.14;16.87;100696.69;5067917;27;45347;-58
2022/08/13 09:52:13;;;;;;;;;3.25;2.75;;;;;38.91;17.76;100702.59;5076139;27;45370;-59
2022/08/13 09:54:40;;;;;;;;;2.75;2.00;;;;;39.62;17.14;100704.81;5074064;27;53904;-59
2022/08/13 09:57:06;;;;;;;;;3.00;2.50;;;;;40.22;15.60;100699.16;5063273;28;47220;-58
2022/08/13 09:59:32;;;;;;;;;1.00;1.00;;;;;40.89;15.22;100708.06;5102439;27;45324;-59
2022/08/13 10:01:57;;;;;;;;;2.00;2.00;;;;;41.49;15.37;100703.94;5075064;28;45337;-59
2022/08/13 10:04:24;;;;;;;;;1.25;1.25;;;;;42.15;15.03;100696.00;5071560;28;46024;-59
2022/08/13 10:06:49;;;;;;;;;4.75;2.25;;;;;42.66;13.94;100699.47;5071070;27;45495;-58
2022/08/13 10:09:14;;;;;;;;;2.75;2.75;;;;;43.20;13.34;100695.13;5083589;27;66788;-59
2022/08/13 10:11:40;;;;;;;;;2.00;2.00;;;;;43.83;12.35;100691.84;5086786;27;45297;-58
2022/08/13 10:14:06;;;;;;;;;3.50;3.50;;;;;44.41;13.69;100692.78;5078641;28;45259;-58
2022/08/13 10:16:31;;;;;;;;;3.75;3.75;;;;;45.01;13.13;100690.53;5057559;28;45718;-58
2022/08/13 10:18:57;;;;;;;;;2.50;2.50;;;;;45.58;12.89;100697.00;5078382;27;45327;-58
2022/08/13 10:21:22;;;;;;;;;1.50;1.50;;;;;46.01;11.60;100685.63;5077455;28;52255;-58
2022/08/13 10:23:48;;;;;;;;;3.25;3.25;;;;;46.41;11.13;100683.84;5076783;28;63918;-57
2022/08/13 10:26:18;;;;;;;;;2.50;2.50;;;;;46.84;10.16;100691.69;5077150;28;73917;-58
2022/08/13 10:28:43;;;;;;;;;2.50;2.00;;;;;47.18;9.84;100689.03;5077456;28;45869;-58
2022/08/13 10:31:09;;;;;;;;;2.00;2.00;;;;;47.31;11.01;100688.38;5072692;27;45322;-58
2022/08/13 10:33:37;;;;;;;;;4.75;3.00;;;;;47.40;9.77;100673.91;5077936;28;45507;-58
2022/08/13 10:36:07;;;;;;;;;3.50;3.50;;;;;47.43;10.31;100684.41;5077221;27;46140;-58
2022/08/13 10:38:33;;;;;;;;;2.25;2.25;;;;;47.68;11.00;100686.16;5077725;28;45402;-58
2022/08/13 10:41:07;;;;;;;;;2.50;2.25;;;;;48.06;10.83;100680.78;5074353;27;45350;-58
2022/08/13 10:43:35;;;;;;;;;3.75;3.75;;;;;48.32;10.37;100677.72;5061148;28;45276;-58
2022/08/13 10:46:00;;;;;;;;;2.00;2.00;;;;;48.41;8.03;100674.00;5072953;28;46205;-58
2022/08/13 10:48:27;;;;;;;;;2.50;2.50;;;;;48.48;9.96;100673.63;5076409;27;58405;-58
2022/08/13 10:50:53;;;;;;;;;4.00;3.00;;;;;48.65;9.06;100668.41;5074667;27;45270;-58
2022/08/13 10:56:04;;;;;;;;;3.00;3.00;;;;;49.03;9.47;100675.94;5079022;27;45243;-58
2022/08/13 10:58:33;;;;;;;;;4.25;3.75;;;;;49.10;8.96;100665.28;5077467;28;45310;-58
2022/08/13 11:01:03;;;;;;;;;4.00;4.00;;;;;49.29;9.12;100667.22;5074434;27;45402;-58
2022/08/13 11:03:30;;;;;;;;;3.00;3.00;;;;;49.36;8.85;100659.31;5070644;28;45182;-58
2022/08/13 11:06:00;;;;;;;;;1.50;1.50;;;;;48.85;8.88;100661.75;5092448;27;47133;-58
2022/08/13 11:08:31;;;;;;;;;3.00;3.00;;;;;48.06;8.86;100661.34;5079038;27;45214;-58
2022/08/13 11:10:56;;;;;;;;;2.50;2.50;;;;;46.96;9.90;100654.28;5081904;27;45331;-58
2022/08/13 11:13:23;;;;;;;;;4.00;2.00;;;;;45.89;10.11;100662.97;5081237;28;45373;-58
2022/08/13 11:15:48;;;;;;;;;2.75;2.75;;;;;44.90;10.15;100655.69;5080254;28;46188;-58
2022/08/13 11:18:13;;;;;;;;;3.50;3.00;;;;;43.95;10.34;100654.72;5081997;27;45346;-58
2022/08/13 11:21:02;;;;;;;;;1.25;1.25;;;;;43.03;10.72;100660.28;5080248;27;46870;-58
2022/08/13 11:23:27;;;;;;;;;3.00;2.00;;;;;42.03;11.48;100657.56;5083284;27;45283;-58
2022/08/13 11:25:52;;;;;;;;;2.25;2.25;;;;;41.39;11.07;100648.88;5081937;27;50630;-58
2022/08/13 11:28:17;;;;;;;;;3.00;3.00;;;;;40.82;11.50;100649.69;5079009;27;59804;-58
2022/08/13 11:30:43;;;;;;;;;3.50;3.50;;;;;40.25;11.95;100648.50;5075955;27;53334;-57
2022/08/13 11:33:08;;;;;;;;;3.00;3.00;;;;;39.76;12.42;100639.69;5077011;27;64861;-57
2022/08/13 11:35:34;;;;;;;;;2.00;2.00;;;;;39.37;12.28;100645.56;5078979;27;46063;-57
2022/08/13 11:38:07;;;;;;;;;1.75;1.50;;;;;38.92;12.59;100640.50;5084131;27;45339;-57
2022/08/13 11:40:33;;;;;;;;;1.25;1.25;;;;;38.52;12.89;100633.63;5079300;27;45242;-57
2022/08/13 11:42:59;;;;;;;;;2.00;2.00;;;;;38.20;13.18;100632.13;5078148;27;45271;-57
2022/08/13 11:45:24;;;;;;;;;2.00;2.00;;;;;37.90;13.20;100630.09;5081359;27;46182;-57
2022/08/13 11:47:50;;;;;;;;;3.00;2.50;;;;;37.69;13.40;100634.88;5092803;27;65698;-57
2022/08/13 11:50:15;;;;;;;;;4.00;3.00;;;;;37.57;13.60;100629.25;5078600;27;61333;-57